createdAt,value
2023-02-09T00:02:00.942Z,-9.33
2023-02-09T00:05:08.333Z,-9.41
2023-02-09T00:08:14.517Z,-9.51
2023-02-09T00:11:20.127Z,-9.62
2023-02-09T00:14:26.666Z,-9.67
2023-02-09T00:17:33.436Z,-9.69
2023-02-09T00:20:39.690Z,-9.71
2023-02-09T00:23:46.200Z,-9.71
2023-02-09T00:26:52.633Z,-9.67
2023-02-09T00:29:58.945Z,-9.74
2023-02-09T00:33:05.274Z,-9.80
2023-02-09T00:36:14.511Z,-9.86
2023-02-09T00:39:20.716Z,-9.94
2023-02-09T00:42:26.926Z,-9.91
2023-02-09T00:45:33.572Z,-9.84
2023-02-09T00:48:39.917Z,-9.86
2023-02-09T00:51:46.632Z,-9.93
2023-02-09T00:54:52.973Z,-9.97
2023-02-09T00:57:59.149Z,-10.07
2023-02-09T01:01:05.480Z,-10.16
2023-02-09T01:04:11.712Z,-10.23
2023-02-09T01:07:17.945Z,-10.23
2023-02-09T01:10:24.554Z,-10.23
2023-02-09T01:13:31.150Z,-10.18
2023-02-09T01:16:37.406Z,-10.11
2023-02-09T01:19:43.627Z,-10.15
2023-02-09T01:22:50.052Z,-10.18
2023-02-09T01:26:04.647Z,-10.20
2023-02-09T01:29:13.040Z,-10.28
2023-02-09T01:32:19.176Z,-10.37
2023-02-09T01:35:23.719Z,-10.52
2023-02-09T01:38:30.591Z,-10.65
2023-02-09T01:41:37.043Z,-10.73
2023-02-09T01:45:17.911Z,-10.81
2023-02-09T01:48:27.424Z,-10.82
2023-02-09T01:51:37.906Z,-10.80
2023-02-09T01:54:47.715Z,-10.82
2023-02-09T01:57:56.744Z,-10.91
2023-02-09T02:01:03.205Z,-10.97
2023-02-09T02:04:09.839Z,-10.94
2023-02-09T02:07:21.843Z,-10.83
2023-02-09T02:10:28.317Z,-10.83
2023-02-09T02:13:34.562Z,-10.86
2023-02-09T02:16:55.177Z,-10.88
2023-02-09T02:20:33.298Z,-10.87
2023-02-09T02:23:48.692Z,-10.85
2023-02-09T02:26:59.679Z,-10.81
2023-02-09T02:30:35.270Z,-10.80
2023-02-09T02:33:50.974Z,-10.86
2023-02-09T02:37:05.253Z,-10.90
2023-02-09T02:40:21.841Z,-11.00
2023-02-09T02:43:41.705Z,-11.03
2023-02-09T02:46:52.080Z,-10.98
2023-02-09T02:50:04.953Z,-10.97
2023-02-09T02:53:14.936Z,-10.98
2023-02-09T02:56:25.823Z,-10.94
2023-02-09T02:59:35.207Z,-10.93
2023-02-09T03:02:44.831Z,-10.99
2023-02-09T03:05:51.917Z,-11.00
2023-02-09T03:08:59.569Z,-10.94
2023-02-09T03:12:14.157Z,-10.91
2023-02-09T03:15:31.710Z,-10.95
2023-02-09T03:18:45.355Z,-10.96
2023-02-09T03:21:57.114Z,-10.95
2023-02-09T03:25:07.693Z,-10.97
2023-02-09T03:28:19.569Z,-11.01
2023-02-09T03:31:26.710Z,-11.07
2023-02-09T03:34:32.940Z,-11.08
2023-02-09T03:37:39.644Z,-11.12
2023-02-09T03:40:46.559Z,-11.17
2023-02-09T03:44:10.607Z,-11.22
2023-02-09T03:47:16.771Z,-11.26
2023-02-09T03:50:23.072Z,-11.29
2023-02-09T03:53:29.406Z,-11.36
2023-02-09T03:56:37.647Z,-11.42
2023-02-09T03:59:43.942Z,-11.44
2023-02-09T04:02:50.191Z,-11.40
2023-02-09T04:05:56.690Z,-11.38
2023-02-09T04:09:03.994Z,-11.43
2023-02-09T04:12:10.570Z,-11.47
2023-02-09T04:15:16.890Z,-11.51
2023-02-09T04:18:23.541Z,-11.50
2023-02-09T04:21:29.810Z,-11.49
2023-02-09T04:24:36.281Z,-11.53
2023-02-09T04:27:42.468Z,-11.55
2023-02-09T04:30:52.414Z,-11.55
2023-02-09T04:33:58.660Z,-11.58
2023-02-09T04:37:04.928Z,-11.63
2023-02-09T04:40:12.900Z,-11.66
2023-02-09T04:43:19.992Z,-11.59
2023-02-09T04:46:26.272Z,-11.61
2023-02-09T04:49:32.629Z,-11.61
2023-02-09T04:52:38.805Z,-11.58
2023-02-09T04:55:46.716Z,-11.59
2023-02-09T04:59:10.448Z,-11.58
2023-02-09T05:02:16.604Z,-11.54
2023-02-09T05:05:22.989Z,-11.55
2023-02-09T05:08:30.106Z,-11.58
2023-02-09T05:11:36.321Z,-11.61
2023-02-09T05:14:42.590Z,-11.65
2023-02-09T05:17:48.926Z,-11.65
2023-02-09T05:20:55.473Z,-11.63
2023-02-09T05:24:01.758Z,-11.67
2023-02-09T05:27:08.010Z,-11.77
2023-02-09T05:30:15.573Z,-11.80
2023-02-09T05:33:22.006Z,-11.77
2023-02-09T05:36:28.334Z,-11.73
2023-02-09T05:39:34.710Z,-11.74
2023-02-09T05:42:41.186Z,-11.75
2023-02-09T05:45:48.439Z,-11.72
2023-02-09T05:48:54.726Z,-11.70
2023-02-09T05:52:01.025Z,-11.69
2023-02-09T05:55:07.988Z,-11.70
2023-02-09T05:58:14.618Z,-11.72
2023-02-09T06:01:20.943Z,-11.73
2023-02-09T06:04:27.853Z,-11.76
2023-02-09T06:07:34.033Z,-11.81
2023-02-09T06:10:40.075Z,-11.93
2023-02-09T06:13:44.541Z,-11.96
2023-02-09T06:16:50.774Z,-11.92
2023-02-09T06:19:56.981Z,-11.91
2023-02-09T06:23:03.273Z,-11.88
2023-02-09T06:26:11.989Z,-11.85
2023-02-09T06:29:18.203Z,-11.81
2023-02-09T06:32:24.376Z,-11.85
2023-02-09T06:35:30.638Z,-11.94
2023-02-09T06:38:38.129Z,-11.97
2023-02-09T06:41:44.331Z,-11.89
2023-02-09T06:44:50.552Z,-11.80
2023-02-09T06:47:56.754Z,-11.72
2023-02-09T06:51:03.110Z,-11.64
2023-02-09T06:54:09.819Z,-11.66
2023-02-09T06:57:16.078Z,-11.68
2023-02-09T07:00:23.891Z,-11.63
2023-02-09T07:03:30.870Z,-11.53
2023-02-09T07:06:37.144Z,-11.44
2023-02-09T07:09:43.366Z,-11.34
2023-02-09T07:12:49.708Z,-11.21
2023-02-09T07:16:00.936Z,-11.11
2023-02-09T07:19:07.216Z,-11.05
2023-02-09T07:22:13.543Z,-11.03
2023-02-09T07:25:19.957Z,-10.99
2023-02-09T07:28:26.432Z,-10.91
2023-02-09T07:31:32.701Z,-10.85
2023-02-09T07:34:38.996Z,-10.79
2023-02-09T07:37:45.441Z,-10.78
2023-02-09T07:40:51.921Z,-10.77
2023-02-09T07:43:58.457Z,-10.75
2023-02-09T07:47:04.828Z,-10.64
2023-02-09T07:50:12.014Z,-10.56
2023-02-09T07:53:18.502Z,-10.47
2023-02-09T07:56:25.050Z,-10.34
2023-02-09T07:59:31.294Z,-10.16
2023-02-09T08:02:38.987Z,-9.99
2023-02-09T08:05:52.641Z,-9.86
2023-02-09T08:09:01.077Z,-9.72
2023-02-09T08:12:09.710Z,-9.58
2023-02-09T08:15:18.030Z,-9.45
2023-02-09T08:18:26.440Z,-9.30
2023-02-09T08:21:35.527Z,-9.15
2023-02-09T08:24:42.400Z,-8.99
2023-02-09T08:27:49.494Z,-8.81
2023-02-09T08:30:55.836Z,-8.66
2023-02-09T08:34:02.087Z,-8.54
2023-02-09T08:37:08.207Z,-8.42
2023-02-09T08:40:14.964Z,-8.30
2023-02-09T08:43:21.383Z,-8.19
2023-02-09T08:46:27.930Z,-8.05
2023-02-09T08:49:34.305Z,-7.91
2023-02-09T08:52:38.858Z,-7.79
2023-02-09T08:55:45.317Z,-7.66
2023-02-09T08:58:51.959Z,-7.51
2023-02-09T09:01:58.213Z,-7.36
2023-02-09T09:05:02.670Z,-7.22
2023-02-09T09:08:09.688Z,-7.07
2023-02-09T09:11:16.066Z,-6.93
2023-02-09T09:14:22.292Z,-6.78
2023-02-09T09:17:27.137Z,-6.63
2023-02-09T09:20:33.216Z,-6.47
2023-02-09T09:23:39.674Z,-6.31
2023-02-09T09:26:46.524Z,-6.12
2023-02-09T09:29:52.843Z,-5.92
2023-02-09T09:32:59.068Z,-5.72
2023-02-09T09:36:03.940Z,-5.55
2023-02-09T09:39:10.133Z,-5.38
2023-02-09T09:42:22.217Z,-5.20
2023-02-09T09:45:31.699Z,-5.03
2023-02-09T09:48:44.625Z,-4.85
2023-02-09T09:51:54.844Z,-4.66
2023-02-09T09:55:02.540Z,-4.47
2023-02-09T09:58:17.173Z,-4.27
2023-02-09T10:01:23.508Z,-4.08
2023-02-09T10:04:31.558Z,-3.87
2023-02-09T10:07:39.129Z,-3.69
2023-02-09T10:10:50.973Z,-3.50
2023-02-09T10:13:58.640Z,-3.33
2023-02-09T10:17:05.274Z,-3.17
2023-02-09T10:20:13.437Z,-3.04
2023-02-09T10:23:23.921Z,-2.88
2023-02-09T10:26:32.326Z,-2.71
2023-02-09T10:29:38.868Z,-2.54
2023-02-09T10:32:46.471Z,-2.38
2023-02-09T10:35:55.077Z,-2.22
2023-02-09T10:39:19.904Z,-2.04
2023-02-09T10:42:30.346Z,-1.88
2023-02-09T10:45:42.024Z,-1.73
2023-02-09T10:48:49.001Z,-1.58
2023-02-09T10:52:07.177Z,-1.42
2023-02-09T10:55:21.312Z,-1.25
2023-02-09T10:58:31.392Z,-1.09
2023-02-09T11:01:43.448Z,-0.92
2023-02-09T11:04:50.083Z,-0.75
2023-02-09T11:08:00.368Z,-0.57
2023-02-09T11:11:10.452Z,-0.40
2023-02-09T11:14:18.545Z,-0.24
2023-02-09T11:17:36.531Z,-0.08
2023-02-09T11:20:46.330Z,0.11
2023-02-09T11:24:03.234Z,0.31
2023-02-09T11:27:23.609Z,0.50
2023-02-09T11:30:45.909Z,0.71
2023-02-09T11:34:02.017Z,0.86
2023-02-09T11:37:21.356Z,1.03
2023-02-09T11:40:33.297Z,1.19
2023-02-09T11:43:42.495Z,1.34
2023-02-09T11:46:50.683Z,1.48
2023-02-09T11:49:59.322Z,1.65
2023-02-09T11:53:13.023Z,1.82
2023-02-09T11:56:21.209Z,1.99
2023-02-09T11:59:34.156Z,2.15
2023-02-09T12:02:52.188Z,2.30
2023-02-09T12:05:58.647Z,2.41
2023-02-09T12:09:09.864Z,2.54
2023-02-09T12:12:27.163Z,2.63
2023-02-09T12:15:43.001Z,2.75
2023-02-09T12:18:49.690Z,2.86
2023-02-09T12:21:55.976Z,2.96
2023-02-09T12:25:19.754Z,3.06
2023-02-09T12:28:46.991Z,3.13
2023-02-09T12:32:35.978Z,3.18
2023-02-09T12:35:43.576Z,3.28
2023-02-09T12:39:05.098Z,3.38
2023-02-09T12:42:31.328Z,3.46
2023-02-09T12:45:39.778Z,3.53
2023-02-09T12:49:04.522Z,3.62
2023-02-09T12:52:20.349Z,3.72
2023-02-09T12:55:27.375Z,3.80
2023-02-09T12:59:10.482Z,3.83
2023-02-09T13:02:28.178Z,3.89
2023-02-09T13:05:38.966Z,3.93
2023-02-09T13:08:53.555Z,3.97
2023-02-09T13:12:07.638Z,3.97
2023-02-09T13:15:19.331Z,3.95
2023-02-09T13:18:35.160Z,3.97
2023-02-09T13:21:48.538Z,3.98
2023-02-09T13:24:59.826Z,3.99
2023-02-09T13:28:16.395Z,3.95
2023-02-09T13:31:39.774Z,3.90
2023-02-09T13:34:55.458Z,3.84
2023-02-09T13:38:08.460Z,3.76
2023-02-09T13:41:28.492Z,3.73
2023-02-09T13:44:36.957Z,3.72
2023-02-09T13:47:49.395Z,3.70
2023-02-09T13:50:57.433Z,3.70
2023-02-09T13:54:05.101Z,3.69
2023-02-09T13:57:23.779Z,3.62
2023-02-09T14:00:37.486Z,3.54
2023-02-09T14:03:57.805Z,3.50
2023-02-09T14:07:08.499Z,3.46
2023-02-09T14:10:18.209Z,3.42
2023-02-09T14:13:28.836Z,3.34
2023-02-09T14:16:44.724Z,3.24
2023-02-09T14:20:00.390Z,3.17
2023-02-09T14:23:17.517Z,3.13
2023-02-09T14:26:27.714Z,3.08
2023-02-09T14:29:36.141Z,3.03
2023-02-09T14:32:45.569Z,2.94
2023-02-09T14:35:59.348Z,2.87
2023-02-09T14:39:14.036Z,2.82
2023-02-09T14:42:20.793Z,2.78
2023-02-09T14:45:39.420Z,2.76
2023-02-09T14:48:45.853Z,2.72
2023-02-09T14:51:51.209Z,2.64
2023-02-09T14:55:00.026Z,2.54
2023-02-09T14:58:13.944Z,2.43
2023-02-09T15:01:20.272Z,2.31
2023-02-09T15:04:24.817Z,2.20
2023-02-09T15:07:37.588Z,2.09
2023-02-09T15:10:48.526Z,1.98
2023-02-09T15:13:58.497Z,1.86
2023-02-09T15:17:11.106Z,1.75
2023-02-09T15:20:21.447Z,1.64
2023-02-09T15:23:27.934Z,1.57
2023-02-09T15:26:37.272Z,1.49
2023-02-09T15:29:43.418Z,1.41
2023-02-09T15:32:49.961Z,1.31
2023-02-09T15:35:59.551Z,1.18
2023-02-09T15:39:08.255Z,1.04
2023-02-09T15:42:35.502Z,0.91
2023-02-09T15:46:10.552Z,0.79
2023-02-09T15:49:16.822Z,0.66
2023-02-09T15:52:21.674Z,0.54
2023-02-09T15:55:29.096Z,0.44
2023-02-09T15:58:37.340Z,0.30
2023-02-09T16:01:43.768Z,0.17
2023-02-09T16:04:50.232Z,-0.01
2023-02-09T16:07:55.123Z,-0.17
2023-02-09T16:11:02.158Z,-0.36
2023-02-09T16:14:17.772Z,-0.54
2023-02-09T16:17:24.108Z,-0.70
2023-02-09T16:20:29.115Z,-0.81
2023-02-09T16:23:37.428Z,-0.90
2023-02-09T16:26:43.633Z,-1.00
2023-02-09T16:29:49.910Z,-1.06
2023-02-09T16:32:57.080Z,-1.12
2023-02-09T16:36:05.289Z,-1.21
2023-02-09T16:39:18.926Z,-1.32
2023-02-09T16:42:26.535Z,-1.44
2023-02-09T16:45:38.809Z,-1.53
2023-02-09T16:48:47.917Z,-1.61
2023-02-09T16:51:56.314Z,-1.69
2023-02-09T16:55:07.717Z,-1.75
2023-02-09T16:58:16.706Z,-1.83
2023-02-09T17:01:24.216Z,-1.90
2023-02-09T17:04:30.678Z,-2.00
2023-02-09T17:07:48.814Z,-2.09
2023-02-09T17:11:00.554Z,-2.20
2023-02-09T17:14:06.876Z,-2.27
2023-02-09T17:17:18.988Z,-2.29
2023-02-09T17:20:30.440Z,-2.35
2023-02-09T17:23:37.043Z,-2.42
2023-02-09T17:26:43.557Z,-2.45
2023-02-09T17:29:49.874Z,-2.48
2023-02-09T17:32:59.879Z,-2.52
2023-02-09T17:39:33.106Z,-2.60
2023-02-09T17:42:38.383Z,-2.64
2023-02-09T17:45:49.094Z,-2.73
2023-02-09T17:48:55.587Z,-2.82
2023-02-09T17:52:01.846Z,-2.90
2023-02-09T17:55:06.789Z,-2.98
2023-02-09T17:58:13.577Z,-3.03
2023-02-09T18:01:27.441Z,-3.09
2023-02-09T18:04:33.891Z,-3.15
2023-02-09T18:07:40.262Z,-3.21
2023-02-09T18:10:44.769Z,-3.24
2023-02-09T18:13:51.100Z,-3.27
2023-02-09T18:16:56.283Z,-3.31
2023-02-09T18:20:02.584Z,-3.35
2023-02-09T18:23:07.357Z,-3.38
2023-02-09T18:26:13.706Z,-3.39
2023-02-09T18:29:18.261Z,-3.40
2023-02-09T18:32:24.669Z,-3.44
2023-02-09T18:35:34.346Z,-3.50
2023-02-09T18:38:41.064Z,-3.56
2023-02-09T18:41:54.429Z,-3.60
2023-02-09T18:45:01.240Z,-3.66
2023-02-09T18:48:06.027Z,-3.75
2023-02-09T18:51:12.635Z,-3.81
2023-02-09T18:54:19.048Z,-3.83
2023-02-09T18:57:25.273Z,-3.88
2023-02-09T19:00:32.697Z,-3.93
2023-02-09T19:03:38.945Z,-3.95
2023-02-09T19:06:43.609Z,-3.91
2023-02-09T19:09:49.897Z,-3.91
2023-02-09T19:12:55.527Z,-3.92
2023-02-09T19:16:01.957Z,-3.90
2023-02-09T19:19:09.617Z,-3.86
2023-02-09T19:22:19.816Z,-3.80
2023-02-09T19:25:29.018Z,-3.73
2023-02-09T19:28:36.265Z,-3.68
2023-02-09T19:31:42.863Z,-3.63
2023-02-09T19:34:50.000Z,-3.59
2023-02-09T19:37:57.651Z,-3.57
2023-02-09T19:41:12.055Z,-3.55
2023-02-09T19:44:18.534Z,-3.52
2023-02-09T19:47:27.488Z,-3.57
2023-02-09T19:50:33.910Z,-3.68
2023-02-09T19:53:40.169Z,-3.83
2023-02-09T19:56:45.326Z,-3.94
2023-02-09T19:59:51.664Z,-4.10
2023-02-09T20:02:56.284Z,-4.22
2023-02-09T20:06:05.750Z,-4.35
2023-02-09T20:09:12.470Z,-4.43
2023-02-09T20:12:19.279Z,-4.51
2023-02-09T20:15:25.727Z,-4.59
2023-02-09T20:18:32.171Z,-4.70
2023-02-09T20:21:36.992Z,-4.78
2023-02-09T20:24:44.377Z,-4.90
2023-02-09T20:27:51.825Z,-5.01
2023-02-09T20:30:58.176Z,-5.14
2023-02-09T20:34:05.165Z,-5.29
2023-02-09T20:37:12.167Z,-5.44
2023-02-09T20:40:18.590Z,-5.53
2023-02-09T20:43:42.602Z,-5.64
2023-02-09T20:46:58.087Z,-5.72
2023-02-09T20:50:05.166Z,-5.82
2023-02-09T20:53:11.542Z,-5.87
2023-02-09T20:56:17.758Z,-5.93
2023-02-09T20:59:25.504Z,-5.96
2023-02-09T21:02:31.811Z,-5.90
2023-02-09T21:05:38.655Z,-5.80
2023-02-09T21:08:44.911Z,-5.65
2023-02-09T21:11:49.408Z,-5.49
2023-02-09T21:14:56.739Z,-5.34
2023-02-09T21:18:03.116Z,-5.19
2023-02-09T21:21:08.093Z,-5.03
2023-02-09T21:24:14.434Z,-4.85
2023-02-09T21:27:19.394Z,-4.65
2023-02-09T21:30:26.068Z,-4.46
2023-02-09T21:33:32.283Z,-4.32
2023-02-09T21:36:38.103Z,-4.26
2023-02-09T21:39:42.768Z,-4.18
2023-02-09T21:42:49.994Z,-4.09
2023-02-09T21:45:56.292Z,-4.04
2023-02-09T21:49:02.934Z,-3.99
2023-02-09T21:52:09.670Z,-3.94
2023-02-09T21:55:17.099Z,-3.85
2023-02-09T21:58:23.355Z,-3.79
2023-02-09T22:01:27.906Z,-3.72
2023-02-09T22:04:34.355Z,-3.72
2023-02-09T22:07:40.776Z,-3.77
2023-02-09T22:10:48.901Z,-3.81
2023-02-09T22:13:56.357Z,-3.84
2023-02-09T22:17:02.920Z,-3.86
2023-02-09T22:20:11.107Z,-3.88
2023-02-09T22:23:18.669Z,-3.92
2023-02-09T22:26:24.861Z,-3.96
2023-02-09T22:29:33.374Z,-4.01
2023-02-09T22:32:39.854Z,-4.05
2023-02-09T22:35:46.409Z,-4.07
2023-02-09T22:38:52.825Z,-4.05
2023-02-09T22:41:59.331Z,-4.05
2023-02-09T22:45:06.145Z,-4.07
2023-02-09T22:48:13.614Z,-4.09
2023-02-09T22:51:20.809Z,-4.09
2023-02-09T22:54:27.038Z,-4.10
2023-02-09T22:57:31.630Z,-4.11
2023-02-09T23:00:37.821Z,-4.08
2023-02-09T23:03:44.169Z,-3.96
2023-02-09T23:06:50.466Z,-3.79
2023-02-09T23:09:55.367Z,-3.69
2023-02-09T23:13:01.595Z,-3.62
2023-02-09T23:16:16.012Z,-3.57
2023-02-09T23:19:22.930Z,-3.53
2023-02-09T23:22:29.240Z,-3.51
2023-02-09T23:25:33.839Z,-3.50
2023-02-09T23:28:40.205Z,-3.52
2023-02-09T23:31:45.160Z,-3.55
2023-02-09T23:34:51.384Z,-3.61
2023-02-09T23:37:57.840Z,-3.69
2023-02-09T23:41:08.957Z,-3.75
2023-02-09T23:44:15.297Z,-3.80
2023-02-09T23:47:21.541Z,-3.87
2023-02-09T23:50:27.720Z,-3.94
2023-02-09T23:53:35.262Z,-3.99
2023-02-09T23:56:42.067Z,-4.02
2023-02-09T23:59:48.500Z,-4.06
